Time;durP1;ratioP1;P1;durP2;ratioP2;P2;SDS_P1;SDS_P2;PMS_P1;PMS_P2;Temp;Humidity;BMP_temperature;BMP_pressure;BME280_temperature;BME280_humidity;BME280_pressure;Samples;Min_cycle;Max_cycle;Signal;HPM_P1;HPM_P2
2022/09/23 00:00:20;;;;;;;8.53;4.90;;;;;;;;;;5095547;28;20487;-73
2022/09/23 00:02:50;;;;;;;4.47;4.23;;;;;;;;;;5095385;28;20437;-73
2022/09/23 00:05:16;;;;;;;10.73;4.60;;;;;;;;;;5095342;28;20408;-73
2022/09/23 00:07:42;;;;;;;4.43;4.23;;;;;;;;;;5095350;28;20915;-73
2022/09/23 00:10:08;;;;;;;4.67;4.47;;;;;;;;;;5095523;28;20405;-73
2022/09/23 00:12:34;;;;;;;4.93;4.40;;;;;;;;;;5095239;28;20417;-73
2022/09/23 00:15:00;;;;;;;5.53;4.40;;;;;;;;;;5094990;28;20476;-72
2022/09/23 00:17:27;;;;;;;4.67;4.37;;;;;;;;;;5093848;28;20420;-72
2022/09/23 00:19:54;;;;;;;3.90;3.80;;;;;;;;;;5093852;28;20416;-73
2022/09/23 00:22:20;;;;;;;9.77;5.03;;;;;;;;;;5095092;28;20409;-73
2022/09/23 00:24:46;;;;;;;4.00;3.90;;;;;;;;;;5095122;28;20401;-73
2022/09/23 00:27:12;;;;;;;5.20;4.50;;;;;;;;;;5095011;28;20852;-72
2022/09/23 00:29:38;;;;;;;4.40;4.20;;;;;;;;;;5095025;28;20469;-72
2022/09/23 00:32:04;;;;;;;4.90;4.70;;;;;;;;;;5094900;28;20964;-73
2022/09/23 00:34:30;;;;;;;4.80;4.50;;;;;;;;;;5094768;28;20560;-73
2022/09/23 00:36:56;;;;;;;4.27;4.07;;;;;;;;;;5094856;28;20416;-73
2022/09/23 00:39:25;;;;;;;4.23;3.93;;;;;;;;;;5094684;28;20761;-73
2022/09/23 00:41:51;;;;;;;4.43;4.23;;;;;;;;;;5093377;28;20405;-73
2022/09/23 00:44:36;;;;;;;4.03;3.93;;;;;;;;;;5094673;28;20478;-73
2022/09/23 00:47:02;;;;;;;3.67;3.57;;;;;;;;;;5094577;28;20952;-73
2022/09/23 00:49:29;;;;;;;3.97;3.87;;;;;;;;;;5094742;28;20783;-73
2022/09/23 00:51:58;;;;;;;5.70;4.33;;;;;;;;;;5095085;28;20420;-73
2022/09/23 00:54:26;;;;;;;3.70;3.40;;;;;;;;;;5093726;28;20476;-74
2022/09/23 00:56:52;;;;;;;3.80;3.70;;;;;;;;;;5095180;28;20406;-73
2022/09/23 00:59:18;;;;;;;3.60;3.50;;;;;;;;;;5095200;28;20456;-73
2022/09/23 01:01:44;;;;;;;3.87;3.77;;;;;;;;;;5095400;28;20439;-73
2022/09/23 01:04:10;;;;;;;4.80;4.50;;;;;;;;;;5094451;28;20456;-73
2022/09/23 01:06:37;;;;;;;4.30;4.03;;;;;;;;;;5094720;28;20420;-73
2022/09/23 01:09:03;;;;;;;4.97;4.60;;;;;;;;;;5095343;28;20894;-73
2022/09/23 01:11:29;;;;;;;6.30;5.33;;;;;;;;;;5095180;28;20409;-73
2022/09/23 01:13:55;;;;;;;4.87;4.57;;;;;;;;;;5093478;28;20835;-72
2022/09/23 01:16:29;;;;;;;5.13;4.80;;;;;;;;;;5094612;28;20916;-72
2022/09/23 01:19:14;;;;;;;4.60;4.30;;;;;;;;;;5093423;28;20960;-73
2022/09/23 01:21:43;;;;;;;7.73;3.80;;;;;;;;;;5094178;28;20902;-72
2022/09/23 01:24:27;;;;;;;4.80;4.60;;;;;;;;;;5094240;28;20400;-72
2022/09/23 01:26:58;;;;;;;4.40;4.00;;;;;;;;;;5094159;28;20474;-73
2022/09/23 01:29:24;;;;;;;4.47;4.37;;;;;;;;;;5094014;28;20405;-74
2022/09/23 01:32:10;;;;;;;4.10;3.90;;;;;;;;;;5094095;28;20413;-72
2022/09/23 01:34:49;;;;;;;3.93;3.77;;;;;;;;;;5062609;28;20521;-73
2022/09/23 01:37:23;;;;;;;3.80;3.60;;;;;;;;;;5093773;28;20931;-73
2022/09/23 01:39:54;;;;;;;4.60;4.20;;;;;;;;;;5093764;28;20436;-73
2022/09/23 01:42:28;;;;;;;4.80;4.60;;;;;;;;;;5093702;28;20413;-73
2022/09/23 01:45:01;;;;;;;11.60;4.60;;;;;;;;;;5092432;28;20461;-73
2022/09/23 01:47:35;;;;;;;4.53;4.20;;;;;;;;;;5093924;28;20789;-74
2022/09/23 01:50:54;;;;;;;4.07;3.87;;;;;;;;;;5093558;28;20409;-73
2022/09/23 01:52:51;;;;;;;3.83;3.73;;;;;;;;;;5093379;28;20421;-73
2022/09/23 01:55:22;;;;;;;4.20;4.00;;;;;;;;;;5093400;28;20549;-73
2022/09/23 01:57:57;;;;;;;6.80;3.83;;;;;;;;;;5092317;28;20751;-73
2022/09/23 02:00:24;;;;;;;4.10;3.90;;;;;;;;;;5093523;28;20500;-73
2022/09/23 02:02:59;;;;;;;3.73;3.60;;;;;;;;;;5093493;28;20463;-73
2022/09/23 02:05:29;;;;;;;3.70;3.50;;;;;;;;;;5092224;28;20420;-73
2022/09/23 02:07:58;;;;;;;3.93;3.73;;;;;;;;;;5093513;28;20413;-73
2022/09/23 02:10:44;;;;;;;4.20;4.10;;;;;;;;;;5093421;28;20412;-73
2022/09/23 02:13:17;;;;;;;4.07;3.80;;;;;;;;;;5093407;28;20426;-73
2022/09/23 02:15:46;;;;;;;4.83;3.47;;;;;;;;;;5093590;28;20498;-73
2022/09/23 02:18:18;;;;;;;3.70;3.60;;;;;;;;;;5097551;28;20393;-73
2022/09/23 02:20:45;;;;;;;4.37;4.03;;;;;;;;;;5097502;28;20408;-73
2022/09/23 02:23:16;;;;;;;3.90;3.80;;;;;;;;;;5097360;28;20441;-73
2022/09/23 02:25:48;;;;;;;4.10;3.90;;;;;;;;;;5097410;28;20953;-73
2022/09/23 02:28:18;;;;;;;3.50;3.30;;;;;;;;;;5097264;28;20409;-73
2022/09/23 02:30:59;;;;;;;4.20;3.93;;;;;;;;;;5095992;28;20508;-72
2022/09/23 02:33:31;;;;;;;3.60;3.43;;;;;;;;;;5097192;28;20488;-72
2022/09/23 02:36:06;;;;;;;3.53;3.30;;;;;;;;;;5095784;28;21005;-72
2022/09/23 02:38:42;;;;;;;3.40;3.30;;;;;;;;;;5097203;28;20469;-72
2022/09/23 02:41:14;;;;;;;3.20;3.20;;;;;;;;;;5097017;28;20413;-72
2022/09/23 02:43:49;;;;;;;3.73;3.53;;;;;;;;;;5095758;28;20417;-72
2022/09/23 02:46:16;;;;;;;4.13;3.83;;;;;;;;;;5095724;28;20404;-72
2022/09/23 02:49:01;;;;;;;3.67;3.23;;;;;;;;;;5096960;28;20409;-72
2022/09/23 02:51:33;;;;;;;3.70;3.40;;;;;;;;;;5095565;28;20404;-72
2022/09/23 02:53:59;;;;;;;6.53;3.50;;;;;;;;;;5096474;28;20865;-73
2022/09/23 02:56:25;;;;;;;3.60;3.30;;;;;;;;;;5096811;28;20547;-72
2022/09/23 02:58:53;;;;;;;3.70;3.50;;;;;;;;;;5096679;28;20757;-71
2022/09/23 03:01:38;;;;;;;3.73;3.43;;;;;;;;;;5095363;28;20428;-72
2022/09/23 03:04:05;;;;;;;2.93;2.80;;;;;;;;;;5096698;28;20409;-72
2022/09/23 03:06:31;;;;;;;3.37;3.10;;;;;;;;;;5096589;28;20492;-72
2022/09/23 03:09:00;;;;;;;3.70;3.50;;;;;;;;;;5096441;28;20456;-72
2022/09/23 03:11:27;;;;;;;3.10;3.00;;;;;;;;;;5095203;28;20418;-72
2022/09/23 03:13:52;;;;;;;3.33;3.10;;;;;;;;;;5096465;28;20883;-72
2022/09/23 03:16:21;;;;;;;3.43;3.20;;;;;;;;;;5096319;28;20492;-72
2022/09/23 03:18:57;;;;;;;2.80;2.70;;;;;;;;;;5096309;28;20401;-72
2022/09/23 03:21:23;;;;;;;3.30;3.20;;;;;;;;;;5096367;28;20440;-72
2022/09/23 03:23:50;;;;;;;3.93;3.73;;;;;;;;;;5096123;28;20404;-73
2022/09/23 03:26:18;;;;;;;3.63;3.50;;;;;;;;;;5096176;28;20413;-73
2022/09/23 03:28:45;;;;;;;4.33;4.13;;;;;;;;;;5095857;28;20397;-73
2022/09/23 03:31:12;;;;;;;3.77;3.60;;;;;;;;;;5096084;28;20488;-73
2022/09/23 03:33:40;;;;;;;3.90;3.60;;;;;;;;;;5096024;28;20393;-73
2022/09/23 03:38:56;;;;;;;3.90;3.80;;;;;;;;;;5095920;28;20428;-73
2022/09/23 03:41:33;;;;;;;4.50;4.10;;;;;;;;;;5095913;28;20462;-73
2022/09/23 03:43:59;;;;;;;3.17;3.07;;;;;;;;;;5094798;28;20753;-73
2022/09/23 03:46:29;;;;;;;3.80;3.70;;;;;;;;;;5095822;28;20856;-72
2022/09/23 03:49:21;;;;;;;3.53;3.40;;;;;;;;;;5094612;28;20401;-73
2022/09/23 03:51:47;;;;;;;8.33;3.20;;;;;;;;;;5092677;28;20924;-73
2022/09/23 03:54:13;;;;;;;3.27;3.17;;;;;;;;;;5095484;28;20453;-72
2022/09/23 03:56:39;;;;;;;3.87;3.70;;;;;;;;;;5094328;28;20417;-72
2022/09/23 03:59:05;;;;;;;16.53;11.63;;;;;;;;;;5095605;28;20923;-72
2022/09/23 04:01:31;;;;;;;20.37;17.07;;;;;;;;;;5095544;28;20509;-72
2022/09/23 04:03:57;;;;;;;4.10;3.67;;;;;;;;;;5095647;28;20412;-72
2022/09/23 04:06:23;;;;;;;3.60;3.50;;;;;;;;;;5095429;28;20409;-72
2022/09/23 04:08:49;;;;;;;3.30;3.20;;;;;;;;;;5095165;28;20893;-72
2022/09/23 04:11:15;;;;;;;3.47;3.17;;;;;;;;;;5093904;28;20421;-72
2022/09/23 04:13:41;;;;;;;3.70;3.47;;;;;;;;;;5095311;28;20495;-72
2022/09/23 04:16:07;;;;;;;3.17;3.07;;;;;;;;;;5095053;28;20501;-72
2022/09/23 04:18:34;;;;;;;3.17;3.07;;;;;;;;;;5095085;28;20378;-72
2022/09/23 04:21:00;;;;;;;3.70;3.60;;;;;;;;;;5095115;28;20880;-72
2022/09/23 04:23:26;;;;;;;4.20;4.10;;;;;;;;;;5095039;28;20448;-73
2022/09/23 04:25:52;;;;;;;4.20;3.90;;;;;;;;;;5095030;28;20428;-73
2022/09/23 04:28:19;;;;;;;4.37;4.17;;;;;;;;;;5093599;28;20413;-73
2022/09/23 04:30:46;;;;;;;4.17;4.07;;;;;;;;;;5094914;28;20413;-72
2022/09/23 04:33:12;;;;;;;4.80;4.57;;;;;;;;;;5094851;28;20404;-73
2022/09/23 04:35:39;;;;;;;4.50;4.40;;;;;;;;;;5094693;28;20537;-73
2022/09/23 04:38:05;;;;;;;4.27;4.13;;;;;;;;;;5094319;28;20409;-73
2022/09/23 04:40:31;;;;;;;5.27;4.30;;;;;;;;;;5094192;28;20443;-73
2022/09/23 04:42:57;;;;;;;4.13;4.03;;;;;;;;;;5094679;28;20436;-73
2022/09/23 04:45:23;;;;;;;3.87;3.50;;;;;;;;;;5094598;28;20412;-73
2022/09/23 04:47:49;;;;;;;3.97;3.57;;;;;;;;;;5094620;28;20408;-73
2022/09/23 04:50:15;;;;;;;3.77;3.47;;;;;;;;;;5094591;28;20413;-73
2022/09/23 04:52:41;;;;;;;3.37;3.27;;;;;;;;;;5094427;28;20451;-73
2022/09/23 04:55:07;;;;;;;3.13;3.03;;;;;;;;;;5094208;28;20588;-72
2022/09/23 04:57:33;;;;;;;3.60;3.30;;;;;;;;;;5094481;28;20416;-73
2022/09/23 05:00:00;;;;;;;3.80;3.37;;;;;;;;;;5094363;28;20414;-73
2022/09/23 05:02:27;;;;;;;3.90;3.63;;;;;;;;;;5094334;28;20406;-73
2022/09/23 05:04:53;;;;;;;3.63;3.53;;;;;;;;;;5094218;28;20815;-73
2022/09/23 05:07:19;;;;;;;3.60;3.50;;;;;;;;;;5092954;28;20417;-73
2022/09/23 05:09:45;;;;;;;3.50;3.30;;;;;;;;;;5094192;28;20876;-73
2022/09/23 05:12:11;;;;;;;3.80;3.70;;;;;;;;;;5094152;28;20409;-72
2022/09/23 05:14:40;;;;;;;5.63;3.53;;;;;;;;;;5094121;28;20500;-72
2022/09/23 05:17:06;;;;;;;3.30;3.10;;;;;;;;;;5093978;28;20397;-73
2022/09/23 05:19:32;;;;;;;11.13;10.03;;;;;;;;;;5092688;28;20485;-73
2022/09/23 05:21:58;;;;;;;9.27;8.47;;;;;;;;;;5093947;28;20421;-74
2022/09/23 05:24:24;;;;;;;6.90;6.30;;;;;;;;;;5093991;28;20409;-73
2022/09/23 05:26:50;;;;;;;5.77;5.37;;;;;;;;;;5094178;28;20414;-72
2022/09/23 05:29:16;;;;;;;4.60;4.40;;;;;;;;;;5093784;28;20928;-73
2022/09/23 05:31:42;;;;;;;4.97;4.67;;;;;;;;;;5092593;28;20954;-73
2022/09/23 05:34:08;;;;;;;5.30;4.80;;;;;;;;;;5093631;28;20427;-73
2022/09/23 05:36:35;;;;;;;4.63;4.23;;;;;;;;;;5093841;28;20869;-74
2022/09/23 05:39:01;;;;;;;3.95;3.80;;;;;;;;;;5091798;28;20440;-74
2022/09/23 05:41:27;;;;;;;3.73;3.63;;;;;;;;;;5093663;28;20618;-75
2022/09/23 05:43:54;;;;;;;3.83;3.60;;;;;;;;;;5093718;28;20439;-75
2022/09/23 05:46:22;;;;;;;4.40;4.23;;;;;;;;;;5093630;28;20402;-73
2022/09/23 05:48:48;;;;;;;4.43;4.03;;;;;;;;;;5093582;28;20423;-72
2022/09/23 05:51:16;;;;;;;3.83;3.63;;;;;;;;;;5093418;28;20410;-73
2022/09/23 05:53:45;;;;;;;3.77;3.67;;;;;;;;;;5093230;28;20414;-73
2022/09/23 05:56:15;;;;;;;3.80;3.60;;;;;;;;;;5093368;28;20613;-72
2022/09/23 05:58:41;;;;;;;4.03;3.93;;;;;;;;;;5093529;28;20428;-72
2022/09/23 06:01:11;;;;;;;4.20;4.00;;;;;;;;;;5093517;28;20409;-73
2022/09/23 06:03:37;;;;;;;4.63;4.30;;;;;;;;;;5092129;28;20431;-74
2022/09/23 06:06:03;;;;;;;5.00;4.80;;;;;;;;;;5093475;28;20398;-74
2022/09/23 06:08:29;;;;;;;6.43;5.80;;;;;;;;;;5093316;28;20412;-75
2022/09/23 06:10:55;;;;;;;5.77;5.50;;;;;;;;;;5093442;28;20494;-75
2022/09/23 06:13:21;;;;;;;5.97;5.60;;;;;;;;;;5093370;28;20466;-76
2022/09/23 06:15:47;;;;;;;5.10;4.70;;;;;;;;;;5093270;28;20546;-75
2022/09/23 06:18:13;;;;;;;5.37;4.97;;;;;;;;;;5093560;28;20770;-74
2022/09/23 06:20:39;;;;;;;8.73;5.57;;;;;;;;;;5093377;28;20409;-75
2022/09/23 06:23:07;;;;;;;4.73;4.43;;;;;;;;;;5092004;28;20425;-75
2022/09/23 06:25:34;;;;;;;5.27;4.90;;;;;;;;;;5093253;28;20414;-76
2022/09/23 06:28:00;;;;;;;5.93;5.63;;;;;;;;;;5093196;28;20409;-75
2022/09/23 06:30:26;;;;;;;6.53;6.03;;;;;;;;;;5093265;28;20414;-75
2022/09/23 06:32:53;;;;;;;7.50;5.80;;;;;;;;;;5093241;28;20798;-75
2022/09/23 06:35:20;;;;;;;5.60;4.60;;;;;;;;;;5093117;28;20491;-76
2022/09/23 06:37:46;;;;;;;4.83;4.60;;;;;;;;;;5091895;28;20464;-75
2022/09/23 06:40:13;;;;;;;4.60;4.40;;;;;;;;;;5093122;28;20441;-75
2022/09/23 06:42:39;;;;;;;4.33;4.10;;;;;;;;;;5093081;28;20500;-74
2022/09/23 06:45:05;;;;;;;4.90;4.60;;;;;;;;;;5091835;28;20462;-76
2022/09/23 06:47:31;;;;;;;9.40;4.70;;;;;;;;;;5093019;28;20405;-76
2022/09/23 06:49:57;;;;;;;4.33;4.23;;;;;;;;;;5091854;28;20437;-77
2022/09/23 06:52:23;;;;;;;4.57;4.37;;;;;;;;;;5091636;28;20418;-75
2022/09/23 06:54:48;;;;;;;5.13;4.73;;;;;;;;;;5091400;28;20991;-75
2022/09/23 06:57:14;;;;;;;15.53;4.50;;;;;;;;;;5091569;28;20409;-73
2022/09/23 06:59:40;;;;;;;4.97;4.57;;;;;;;;;;5092978;28;20436;-72
2022/09/23 07:02:08;;;;;;;5.23;4.63;;;;;;;;;;5093785;28;20402;-73
2022/09/23 07:04:34;;;;;;;4.60;4.30;;;;;;;;;;5096597;28;20813;-73
2022/09/23 07:07:00;;;;;;;4.43;4.10;;;;;;;;;;5095310;28;20409;-73
2022/09/23 07:09:26;;;;;;;4.90;4.53;;;;;;;;;;5096505;28;20953;-74
2022/09/23 07:11:52;;;;;;;5.87;5.40;;;;;;;;;;5096385;28;20470;-74
2022/09/23 07:14:18;;;;;;;5.53;5.33;;;;;;;;;;5094923;28;20776;-74
2022/09/23 07:16:44;;;;;;;7.47;6.50;;;;;;;;;;5096442;28;20458;-73
2022/09/23 07:19:11;;;;;;;7.30;6.60;;;;;;;;;;5096296;28;20776;-73
2022/09/23 07:21:37;;;;;;;6.93;6.60;;;;;;;;;;5096499;28;20441;-73
2022/09/23 07:24:03;;;;;;;7.43;6.87;;;;;;;;;;5096187;28;20435;-73
2022/09/23 07:26:32;;;;;;;8.60;7.27;;;;;;;;;;5096309;28;20402;-74
2022/09/23 07:29:06;;;;;;;8.03;7.50;;;;;;;;;;5096144;28;20488;-74
2022/09/23 07:31:33;;;;;;;7.47;6.90;;;;;;;;;;5096050;28;20409;-73
2022/09/23 07:34:02;;;;;;;8.30;7.73;;;;;;;;;;5096067;28;20441;-74
2022/09/23 07:36:30;;;;;;;7.60;7.10;;;;;;;;;;5095942;28;20480;-73
2022/09/23 07:39:01;;;;;;;6.80;6.27;;;;;;;;;;5095975;28;20896;-74
2022/09/23 07:41:27;;;;;;;9.50;7.00;;;;;;;;;;5095947;28;20416;-73
2022/09/23 07:43:55;;;;;;;7.43;6.73;;;;;;;;;;5094561;28;20424;-73
2022/09/23 07:46:21;;;;;;;9.57;7.03;;;;;;;;;;5095975;28;20413;-74
2022/09/23 07:48:47;;;;;;;9.80;6.97;;;;;;;;;;5095784;28;20478;-73
2022/09/23 07:51:17;;;;;;;7.43;7.00;;;;;;;;;;5096012;28;20416;-73
2022/09/23 07:53:46;;;;;;;13.60;7.93;;;;;;;;;;5094468;28;20457;-73
2022/09/23 07:56:12;;;;;;;7.43;6.90;;;;;;;;;;5095539;28;20461;-73
2022/09/23 07:58:38;;;;;;;8.00;7.43;;;;;;;;;;5095814;28;20405;-73
2022/09/23 08:01:05;;;;;;;7.50;6.70;;;;;;;;;;5095489;28;20417;-75
2022/09/23 08:03:31;;;;;;;7.43;6.73;;;;;;;;;;5095436;28;20558;-74
2022/09/23 08:06:23;;;;;;;6.97;6.10;;;;;;;;;;5095431;28;20405;-73
2022/09/23 08:08:49;;;;;;;6.77;6.00;;;;;;;;;;5092581;28;20463;-74
2022/09/23 08:11:15;;;;;;;6.57;6.27;;;;;;;;;;5094052;28;20787;-74
2022/09/23 08:13:41;;;;;;;7.07;6.60;;;;;;;;;;5095289;28;20416;-73
2022/09/23 08:16:08;;;;;;;6.33;5.93;;;;;;;;;;5095188;28;20460;-74
2022/09/23 08:18:34;;;;;;;6.63;6.20;;;;;;;;;;5095155;28;20758;-73
2022/09/23 08:20:59;;;;;;;6.83;6.43;;;;;;;;;;5095149;28;20405;-74
2022/09/23 08:23:26;;;;;;;6.40;5.90;;;;;;;;;;5095056;28;20504;-73
2022/09/23 08:25:57;;;;;;;5.90;5.47;;;;;;;;;;5095078;28;20496;-73
2022/09/23 08:28:24;;;;;;;6.67;6.10;;;;;;;;;;5093687;28;20836;-74
2022/09/23 08:30:50;;;;;;;6.87;6.07;;;;;;;;;;5094863;28;20428;-73
2022/09/23 08:33:16;;;;;;;5.43;5.07;;;;;;;;;;5094819;28;20433;-75
2022/09/23 08:35:42;;;;;;;6.43;5.73;;;;;;;;;;5094694;28;20510;-74
2022/09/23 08:38:09;;;;;;;7.90;5.40;;;;;;;;;;5094725;28;20919;-74
2022/09/23 08:40:36;;;;;;;5.93;5.40;;;;;;;;;;5094805;28;20406;-73
2022/09/23 08:43:05;;;;;;;8.10;5.67;;;;;;;;;;5094704;28;20436;-73
2022/09/23 08:45:33;;;;;;;6.93;5.13;;;;;;;;;;5094620;28;20410;-74
2022/09/23 08:48:00;;;;;;;4.67;4.40;;;;;;;;;;5094618;28;20443;-73
2022/09/23 08:50:32;;;;;;;5.03;4.73;;;;;;;;;;5094550;28;20405;-75
2022/09/23 08:53:03;;;;;;;6.67;4.90;;;;;;;;;;5094414;28;20418;-73
2022/09/23 08:55:33;;;;;;;9.83;5.17;;;;;;;;;;5094143;28;20493;-73
2022/09/23 08:58:20;;;;;;;4.73;4.47;;;;;;;;;;5093133;28;20430;-73
2022/09/23 09:00:52;;;;;;;5.60;4.60;;;;;;;;;;5094304;28;20432;-74
2022/09/23 09:03:23;;;;;;;8.20;3.93;;;;;;;;;;5093015;28;20417;-73
2022/09/23 09:05:49;;;;;;;4.20;3.90;;;;;;;;;;5094394;28;20416;-76
2022/09/23 09:08:22;;;;;;;4.83;4.40;;;;;;;;;;5094329;28;20445;-76
2022/09/23 09:10:51;;;;;;;5.07;4.60;;;;;;;;;;5094152;28;20437;-77
2022/09/23 09:13:23;;;;;;;7.77;5.13;;;;;;;;;;5094209;28;20440;-76
2022/09/23 09:16:10;;;;;;;4.83;4.53;;;;;;;;;;5092761;28;21057;-76
2022/09/23 09:18:37;;;;;;;4.37;4.17;;;;;;;;;;5094120;28;20388;-76
2022/09/23 09:21:10;;;;;;;5.43;4.63;;;;;;;;;;5094043;28;20783;-76
2022/09/23 09:23:54;;;;;;;4.60;4.30;;;;;;;;;;5094095;28;20407;-77
2022/09/23 09:26:24;;;;;;;21.60;5.00;;;;;;;;;;5093514;28;20412;-76
2022/09/23 09:28:58;;;;;;;5.30;4.90;;;;;;;;;;5093882;28;20404;-76
2022/09/23 09:31:36;;;;;;;5.80;5.07;;;;;;;;;;5093708;28;20397;-74
2022/09/23 09:34:26;;;;;;;5.10;4.90;;;;;;;;;;5092549;28;20436;-77
2022/09/23 09:37:11;;;;;;;5.07;4.77;;;;;;;;;;5085855;28;20442;-76
2022/09/23 09:39:37;;;;;;;5.97;5.00;;;;;;;;;;5093781;28;20584;-72
2022/09/23 09:42:05;;;;;;;5.03;4.73;;;;;;;;;;5093586;28;20409;-76
2022/09/23 09:44:31;;;;;;;4.87;4.40;;;;;;;;;;5093680;28;20439;-75
2022/09/23 09:47:07;;;;;;;9.97;4.63;;;;;;;;;;5092419;28;20417;-74
2022/09/23 09:49:42;;;;;;;4.60;4.30;;;;;;;;;;5093677;28;20397;-75
2022/09/23 09:52:19;;;;;;;5.90;4.57;;;;;;;;;;5093485;28;20412;-73
2022/09/23 09:54:45;;;;;;;5.17;4.03;;;;;;;;;;5093395;28;20476;-73
2022/09/23 09:57:17;;;;;;;7.37;3.93;;;;;;;;;;5093518;28;20467;-72
2022/09/23 09:59:43;;;;;;;4.30;3.90;;;;;;;;;;5093574;28;20410;-72
2022/09/23 10:02:13;;;;;;;6.33;3.73;;;;;;;;;;5093693;28;20437;-72
2022/09/23 10:04:40;;;;;;;4.10;3.80;;;;;;;;;;5093493;28;20446;-72
2022/09/23 10:07:06;;;;;;;4.70;4.13;;;;;;;;;;5092125;28;20420;-73
2022/09/23 10:09:34;;;;;;;4.93;4.20;;;;;;;;;;5093515;28;20450;-72
2022/09/23 10:12:10;;;;;;;4.97;4.57;;;;;;;;;;5092070;28;20935;-72
2022/09/23 10:14:36;;;;;;;8.33;4.20;;;;;;;;;;5093425;28;20472;-73
2022/09/23 10:17:04;;;;;;;4.93;4.30;;;;;;;;;;5093379;28;20492;-72
2022/09/23 10:19:30;;;;;;;6.00;3.77;;;;;;;;;;5093616;28;20768;-70
2022/09/23 10:21:59;;;;;;;4.73;3.20;;;;;;;;;;5093243;28;20416;-72
2022/09/23 10:24:28;;;;;;;4.33;3.20;;;;;;;;;;5093304;28;20734;-72
2022/09/23 10:26:56;;;;;;;3.43;3.23;;;;;;;;;;5092887;28;20744;-73
2022/09/23 10:29:33;;;;;;;5.43;3.47;;;;;;;;;;5093116;28;20497;-72
2022/09/23 10:32:18;;;;;;;7.63;3.10;;;;;;;;;;5092885;28;20405;-73
2022/09/23 10:34:45;;;;;;;4.47;3.30;;;;;;;;;;5092168;28;20454;-73
2022/09/23 10:37:16;;;;;;;3.60;3.30;;;;;;;;;;5092378;28;20469;-68
2022/09/23 10:48:20;;;;;;;3.90;2.33;;;;;;;;;;5097266;28;20762;-73
2022/09/23 10:50:51;;;;;;;7.33;2.60;;;;;;;;;;5096322;28;20412;-72
2022/09/23 10:53:29;;;;;;;9.93;2.40;;;;;;;;;;5096674;28;20446;-73
2022/09/23 10:56:05;;;;;;;2.10;2.00;;;;;;;;;;5096667;28;20469;-77
2022/09/23 10:58:50;;;;;;;5.33;2.10;;;;;;;;;;5096560;28;20411;-76
2022/09/23 11:01:42;;;;;;;2.27;2.13;;;;;;;;;;5096593;28;20406;-77
2022/09/23 11:04:23;;;;;;;2.73;2.37;;;;;;;;;;5093591;28;20424;-77
2022/09/23 11:07:08;;;;;;;3.30;2.30;;;;;;;;;;5096651;28;20488;-74
2022/09/23 11:09:39;;;;;;;2.23;2.17;;;;;;;;;;5096144;28;20485;-75
2022/09/23 11:12:06;;;;;;;3.83;2.40;;;;;;;;;;5095798;28;20393;-74
2022/09/23 11:14:37;;;;;;;2.70;2.50;;;;;;;;;;5094245;28;20404;-75
2022/09/23 11:17:15;;;;;;;2.03;1.93;;;;;;;;;;5096175;28;20404;-73
2022/09/23 11:19:51;;;;;;;2.50;2.30;;;;;;;;;;5096176;28;20415;-71
2022/09/23 11:22:35;;;;;;;2.50;2.30;;;;;;;;;;5094474;28;20443;-72
2022/09/23 11:25:07;;;;;;;5.93;2.60;;;;;;;;;;5095966;28;20744;-73
2022/09/23 11:27:49;;;;;;;2.40;2.20;;;;;;;;;;5096026;28;20420;-73
2022/09/23 11:30:19;;;;;;;3.83;2.20;;;;;;;;;;5096089;28;20408;-73
2022/09/23 11:32:53;;;;;;;4.73;2.60;;;;;;;;;;5094637;28;20787;-72
2022/09/23 11:35:48;;;;;;;6.07;2.37;;;;;;;;;;5095686;28;20476;-71
2022/09/23 11:38:17;;;;;;;2.27;2.10;;;;;;;;;;5083166;28;20510;-72
2022/09/23 11:40:47;;;;;;;3.03;2.83;;;;;;;;;;5095988;28;20466;-71
2022/09/23 11:43:23;;;;;;;5.30;2.30;;;;;;;;;;5095628;28;20767;-71
2022/09/23 11:45:55;;;;;;;3.00;2.80;;;;;;;;;;5095504;28;20397;-71
2022/09/23 11:48:27;;;;;;;6.70;2.73;;;;;;;;;;5095412;28;20395;-72
2022/09/23 11:50:58;;;;;;;2.20;2.20;;;;;;;;;;5095419;28;20399;-72
2022/09/23 11:53:29;;;;;;;2.10;2.00;;;;;;;;;;5095326;28;20413;-72
2022/09/23 11:55:58;;;;;;;4.20;2.20;;;;;;;;;;5095414;28;20530;-74
2022/09/23 11:58:26;;;;;;;2.70;2.60;;;;;;;;;;5095601;28;20436;-76
2022/09/23 12:01:06;;;;;;;7.43;2.40;;;;;;;;;;5095413;28;20735;-69
2022/09/23 12:03:52;;;;;;;7.00;2.27;;;;;;;;;;5095373;28;20409;-72
2022/09/23 12:06:23;;;;;;;4.47;2.50;;;;;;;;;;5093982;28;20424;-70
2022/09/23 12:08:51;;;;;;;2.93;2.10;;;;;;;;;;5095321;28;20956;-71
2022/09/23 12:11:20;;;;;;;2.30;2.17;;;;;;;;;;5095485;28;20407;-71
2022/09/23 12:13:54;;;;;;;3.00;1.80;;;;;;;;;;5094027;28;20425;-72
2022/09/23 12:16:39;;;;;;;8.13;2.30;;;;;;;;;;5095183;28;20887;-71
2022/09/23 12:19:18;;;;;;;2.27;2.27;;;;;;;;;;5095278;28;20918;-70
2022/09/23 12:21:44;;;;;;;2.33;2.30;;;;;;;;;;5095248;28;20912;-71
2022/09/23 12:24:21;;;;;;;6.23;2.37;;;;;;;;;;5095448;28;20403;-75
2022/09/23 12:26:50;;;;;;;2.93;2.73;;;;;;;;;;5093938;28;20428;-75
2022/09/23 12:29:16;;;;;;;2.40;2.20;;;;;;;;;;5095118;28;20400;-75
2022/09/23 12:31:43;;;;;;;2.80;2.60;;;;;;;;;;5095042;28;20412;-74
2022/09/23 12:34:28;;;;;;;2.40;2.20;;;;;;;;;;5095167;28;20442;-77
2022/09/23 12:37:00;;;;;;;2.30;2.20;;;;;;;;;;5094843;28;20481;-75
2022/09/23 12:39:29;;;;;;;3.70;1.63;;;;;;;;;;5094870;28;20443;-75
2022/09/23 12:41:59;;;;;;;2.10;2.00;;;;;;;;;;5094770;28;20416;-72
2022/09/23 12:44:30;;;;;;;1.87;1.80;;;;;;;;;;5094690;28;20408;-74
2022/09/23 12:47:11;;;;;;;6.43;2.50;;;;;;;;;;5094670;28;20439;-74
2022/09/23 12:49:38;;;;;;;2.93;2.73;;;;;;;;;;5093352;28;20501;-71
2022/09/23 12:52:15;;;;;;;3.03;2.30;;;;;;;;;;5094562;28;20413;-73
2022/09/23 12:54:43;;;;;;;2.30;2.07;;;;;;;;;;5094349;28;20484;-73
2022/09/23 12:57:10;;;;;;;3.10;1.63;;;;;;;;;;5094473;28;20912;-74
2022/09/23 12:59:52;;;;;;;5.50;1.93;;;;;;;;;;5093666;28;20539;-73
2022/09/23 13:02:41;;;;;;;2.60;2.40;;;;;;;;;;5093134;28;20430;-73
2022/09/23 13:07:55;;;;;;;4.03;2.20;;;;;;;;;;5094111;28;20504;-73
2022/09/23 13:10:39;;;;;;;2.43;2.33;;;;;;;;;;5094265;28;20453;-72
2022/09/23 13:13:06;;;;;;;2.50;2.37;;;;;;;;;;5094131;28;20416;-73
2022/09/23 13:15:35;;;;;;;2.40;1.80;;;;;;;;;;5094078;28;20479;-71
2022/09/23 13:18:19;;;;;;;2.27;1.70;;;;;;;;;;5094083;28;20765;-74
2022/09/23 13:20:47;;;;;;;2.23;2.00;;;;;;;;;;5094157;28;20846;-73
2022/09/23 13:23:26;;;;;;;5.00;2.20;;;;;;;;;;5093987;28;20429;-74
2022/09/23 13:25:54;;;;;;;9.03;2.07;;;;;;;;;;5093950;28;20407;-73
2022/09/23 13:28:26;;;;;;;1.93;1.83;;;;;;;;;;5093993;28;20462;-73
2022/09/23 13:30:52;;;;;;;3.60;2.00;;;;;;;;;;5094037;28;20895;-73
2022/09/23 13:33:36;;;;;;;2.57;2.37;;;;;;;;;;5093746;28;20503;-74
2022/09/23 13:36:03;;;;;;;3.60;1.53;;;;;;;;;;5093733;28;21102;-74
2022/09/23 13:38:31;;;;;;;2.40;1.70;;;;;;;;;;5093739;28;20780;-74
2022/09/23 13:41:02;;;;;;;1.90;1.80;;;;;;;;;;5093772;28;20401;-74
2022/09/23 13:43:38;;;;;;;2.30;1.67;;;;;;;;;;5092318;28;20428;-74
2022/09/23 13:46:08;;;;;;;2.00;1.80;;;;;;;;;;5092365;28;20430;-74
2022/09/23 13:48:34;;;;;;;2.00;1.90;;;;;;;;;;5093827;28;20412;-73
2022/09/23 13:51:05;;;;;;;3.00;1.67;;;;;;;;;;5093738;28;20419;-74
2022/09/23 13:53:32;;;;;;;2.23;2.03;;;;;;;;;;5093477;28;20429;-75
2022/09/23 13:56:05;;;;;;;3.20;1.97;;;;;;;;;;5093365;28;20487;-73
2022/09/23 13:58:32;;;;;;;2.77;2.20;;;;;;;;;;5093656;28;20412;-76
2022/09/23 14:00:59;;;;;;;3.20;2.77;;;;;;;;;;5093572;28;20492;-72
2022/09/23 14:03:33;;;;;;;1.80;1.80;;;;;;;;;;5092267;28;20426;-75
2022/09/23 14:06:00;;;;;;;38.90;8.27;;;;;;;;;;5093508;28;20879;-74
2022/09/23 14:08:28;;;;;;;6.00;3.40;;;;;;;;;;5093360;28;20413;-75
2022/09/23 14:10:54;;;;;;;2.37;2.20;;;;;;;;;;5094123;28;20764;-74
2022/09/23 14:13:22;;;;;;;8.40;7.60;;;;;;;;;;5097565;28;20417;-74
2022/09/23 14:15:49;;;;;;;3.30;3.20;;;;;;;;;;5097542;28;20472;-73
2022/09/23 14:18:24;;;;;;;3.13;2.93;;;;;;;;;;5096288;28;20492;-76
2022/09/23 14:20:50;;;;;;;4.33;3.37;;;;;;;;;;5097493;28;20404;-75
2022/09/23 14:23:16;;;;;;;4.57;3.03;;;;;;;;;;5097480;28;20460;-75
2022/09/23 14:25:43;;;;;;;6.20;2.93;;;;;;;;;;5097301;28;20456;-77
2022/09/23 14:28:16;;;;;;;3.60;3.30;;;;;;;;;;5096253;28;20841;-74
2022/09/23 14:30:45;;;;;;;8.90;5.93;;;;;;;;;;5097235;28;20491;-73
2022/09/23 14:33:15;;;;;;;2.00;1.90;;;;;;;;;;5097227;28;20495;-74
2022/09/23 14:35:43;;;;;;;10.77;3.70;;;;;;;;;;5097049;28;20514;-73
2022/09/23 14:41:14;;;;;;;2.50;2.40;;;;;;;;;;5097160;28;20551;-73
2022/09/23 14:43:45;;;;;;;2.40;2.03;;;;;;;;;;5097247;28;20423;-73
2022/09/23 14:46:15;;;;;;;6.33;2.30;;;;;;;;;;5096835;28;20778;-73
2022/09/23 14:48:41;;;;;;;2.47;1.73;;;;;;;;;;5096915;28;20408;-73
2022/09/23 14:51:08;;;;;;;3.50;2.20;;;;;;;;;;5096920;28;20417;-73
2022/09/23 14:53:38;;;;;;;1.90;1.80;;;;;;;;;;5096863;28;20439;-74
2022/09/23 14:56:07;;;;;;;1.97;1.80;;;;;;;;;;5095439;28;20533;-75
2022/09/23 14:58:52;;;;;;;2.10;1.97;;;;;;;;;;5096804;28;20412;-75
2022/09/23 15:01:33;;;;;;;2.00;1.90;;;;;;;;;;5095402;28;20419;-74
2022/09/23 15:04:00;;;;;;;4.07;2.30;;;;;;;;;;5095373;28;20416;-74
2022/09/23 15:06:26;;;;;;;2.33;2.17;;;;;;;;;;5095433;28;20471;-74
2022/09/23 15:08:54;;;;;;;3.43;2.07;;;;;;;;;;5095277;28;20764;-74
2022/09/23 15:11:24;;;;;;;3.37;2.20;;;;;;;;;;5095324;28;20477;-75
2022/09/23 15:13:51;;;;;;;2.30;1.87;;;;;;;;;;5096438;28;20504;-74
2022/09/23 15:16:24;;;;;;;4.30;2.50;;;;;;;;;;5096406;28;20495;-73